sensor_id;sensor_type;location;lat;lon;timestamp;temperature;humidity
29341;DHT22;16337;59.536;13.468;2024-02-23T00:02:17;4.90;99.90
29341;DHT22;16337;59.536;13.468;2024-02-23T00:04:43;4.90;99.90
29341;DHT22;16337;59.536;13.468;2024-02-23T00:07:10;4.80;99.90
29341;DHT22;16337;59.536;13.468;2024-02-23T00:09:36;4.80;99.90
29341;DHT22;16337;59.536;13.468;2024-02-23T00:12:04;4.80;99.90
29341;DHT22;16337;59.536;13.468;2024-02-23T00:14:33;4.90;99.90
29341;DHT22;16337;59.536;13.468;2024-02-23T00:17:06;4.80;99.90
29341;DHT22;16337;59.536;13.468;2024-02-23T00:19:35;4.80;99.90
29341;DHT22;16337;59.536;13.468;2024-02-23T00:22:03;4.80;99.90
29341;DHT22;16337;59.536;13.468;2024-02-23T00:24:29;4.80;99.90
29341;DHT22;16337;59.536;13.468;2024-02-23T00:26:58;4.80;99.90
29341;DHT22;16337;59.536;13.468;2024-02-23T00:29:29;4.80;99.90
29341;DHT22;16337;59.536;13.468;2024-02-23T00:31:55;4.80;99.90
29341;DHT22;16337;59.536;13.468;2024-02-23T00:34:26;4.70;99.90
29341;DHT22;16337;59.536;13.468;2024-02-23T00:37:02;4.80;99.90
29341;DHT22;16337;59.536;13.468;2024-02-23T00:39:33;4.80;99.90
29341;DHT22;16337;59.536;13.468;2024-02-23T00:41:58;4.80;99.90
29341;DHT22;16337;59.536;13.468;2024-02-23T00:44:24;4.80;99.90
29341;DHT22;16337;59.536;13.468;2024-02-23T00:46:50;4.80;99.90
29341;DHT22;16337;59.536;13.468;2024-02-23T00:49:16;4.80;99.90
29341;DHT22;16337;59.536;13.468;2024-02-23T00:51:42;4.80;99.90
29341;DHT22;16337;59.536;13.468;2024-02-23T00:54:08;4.80;99.90
29341;DHT22;16337;59.536;13.468;2024-02-23T00:56:34;4.80;99.90
29341;DHT22;16337;59.536;13.468;2024-02-23T00:59:00;4.80;99.90
29341;DHT22;16337;59.536;13.468;2024-02-23T01:01:26;4.80;99.90
29341;DHT22;16337;59.536;13.468;2024-02-23T01:03:55;4.80;99.90
29341;DHT22;16337;59.536;13.468;2024-02-23T01:06:20;4.80;99.90
29341;DHT22;16337;59.536;13.468;2024-02-23T01:08:46;4.80;99.90
29341;DHT22;16337;59.536;13.468;2024-02-23T01:11:12;4.80;99.90
29341;DHT22;16337;59.536;13.468;2024-02-23T01:13:38;4.80;99.90
29341;DHT22;16337;59.536;13.468;2024-02-23T01:16:04;4.70;99.90
29341;DHT22;16337;59.536;13.468;2024-02-23T01:18:29;4.80;99.90
29341;DHT22;16337;59.536;13.468;2024-02-23T01:20:56;4.80;99.90
29341;DHT22;16337;59.536;13.468;2024-02-23T01:23:23;4.80;99.90
29341;DHT22;16337;59.536;13.468;2024-02-23T01:25:48;4.80;99.90
29341;DHT22;16337;59.536;13.468;2024-02-23T01:28:14;4.70;99.90
29341;DHT22;16337;59.536;13.468;2024-02-23T01:30:39;4.70;99.90
29341;DHT22;16337;59.536;13.468;2024-02-23T01:33:05;4.70;99.90
29341;DHT22;16337;59.536;13.468;2024-02-23T01:35:31;4.70;99.90
29341;DHT22;16337;59.536;13.468;2024-02-23T01:37:56;4.70;99.90
29341;DHT22;16337;59.536;13.468;2024-02-23T01:40:22;4.80;99.90
29341;DHT22;16337;59.536;13.468;2024-02-23T01:42:48;4.80;99.90
29341;DHT22;16337;59.536;13.468;2024-02-23T01:45:13;4.80;99.90
29341;DHT22;16337;59.536;13.468;2024-02-23T01:47:39;4.80;99.90
29341;DHT22;16337;59.536;13.468;2024-02-23T01:50:05;4.80;99.90
29341;DHT22;16337;59.536;13.468;2024-02-23T01:52:33;4.80;99.90
29341;DHT22;16337;59.536;13.468;2024-02-23T01:54:59;4.70;99.90
29341;DHT22;16337;59.536;13.468;2024-02-23T01:57:26;4.80;99.90
29341;DHT22;16337;59.536;13.468;2024-02-23T01:59:53;4.70;99.90
29341;DHT22;16337;59.536;13.468;2024-02-23T02:02:22;4.80;99.90
29341;DHT22;16337;59.536;13.468;2024-02-23T02:04:47;4.80;99.90
29341;DHT22;16337;59.536;13.468;2024-02-23T02:07:13;4.70;99.90
29341;DHT22;16337;59.536;13.468;2024-02-23T02:09:39;4.80;99.90
29341;DHT22;16337;59.536;13.468;2024-02-23T02:12:04;4.70;99.90
29341;DHT22;16337;59.536;13.468;2024-02-23T02:14:30;4.80;99.90
29341;DHT22;16337;59.536;13.468;2024-02-23T02:16:58;4.70;99.90
29341;DHT22;16337;59.536;13.468;2024-02-23T02:19:24;4.70;99.90
29341;DHT22;16337;59.536;13.468;2024-02-23T02:21:49;4.80;99.90
29341;DHT22;16337;59.536;13.468;2024-02-23T02:24:15;4.80;99.90
29341;DHT22;16337;59.536;13.468;2024-02-23T02:26:41;4.90;99.90
29341;DHT22;16337;59.536;13.468;2024-02-23T02:29:08;4.90;99.90
29341;DHT22;16337;59.536;13.468;2024-02-23T02:31:33;4.80;99.90
29341;DHT22;16337;59.536;13.468;2024-02-23T02:34:03;4.80;99.90
29341;DHT22;16337;59.536;13.468;2024-02-23T02:36:29;4.80;99.90
29341;DHT22;16337;59.536;13.468;2024-02-23T02:38:55;4.80;99.90
29341;DHT22;16337;59.536;13.468;2024-02-23T02:41:23;4.80;99.90
29341;DHT22;16337;59.536;13.468;2024-02-23T02:43:49;4.90;99.90
29341;DHT22;16337;59.536;13.468;2024-02-23T02:46:15;4.90;99.90
29341;DHT22;16337;59.536;13.468;2024-02-23T02:48:41;4.90;99.90
29341;DHT22;16337;59.536;13.468;2024-02-23T02:51:06;4.90;99.90
29341;DHT22;16337;59.536;13.468;2024-02-23T02:53:32;4.90;99.90
29341;DHT22;16337;59.536;13.468;2024-02-23T02:55:58;4.90;99.90
29341;DHT22;16337;59.536;13.468;2024-02-23T02:58:24;4.90;99.90
29341;DHT22;16337;59.536;13.468;2024-02-23T03:00:49;4.90;99.90
29341;DHT22;16337;59.536;13.468;2024-02-23T03:03:15;4.90;99.90
29341;DHT22;16337;59.536;13.468;2024-02-23T03:05:41;5.00;99.90
29341;DHT22;16337;59.536;13.468;2024-02-23T03:08:06;5.00;99.90
29341;DHT22;16337;59.536;13.468;2024-02-23T03:10:32;5.00;99.90
29341;DHT22;16337;59.536;13.468;2024-02-23T03:12:58;5.00;99.90
29341;DHT22;16337;59.536;13.468;2024-02-23T03:15:23;5.00;99.90
29341;DHT22;16337;59.536;13.468;2024-02-23T03:17:49;5.00;99.90
29341;DHT22;16337;59.536;13.468;2024-02-23T03:20:15;5.00;99.90
29341;DHT22;16337;59.536;13.468;2024-02-23T03:22:41;5.00;99.90
29341;DHT22;16337;59.536;13.468;2024-02-23T03:25:07;5.00;99.90
29341;DHT22;16337;59.536;13.468;2024-02-23T03:27:37;5.00;99.90
29341;DHT22;16337;59.536;13.468;2024-02-23T03:30:03;4.90;99.90
29341;DHT22;16337;59.536;13.468;2024-02-23T03:32:29;4.90;99.90
29341;DHT22;16337;59.536;13.468;2024-02-23T03:35:02;4.90;99.90
29341;DHT22;16337;59.536;13.468;2024-02-23T03:37:28;4.90;99.90
29341;DHT22;16337;59.536;13.468;2024-02-23T03:39:54;4.90;99.90
29341;DHT22;16337;59.536;13.468;2024-02-23T03:42:19;4.90;99.90
29341;DHT22;16337;59.536;13.468;2024-02-23T03:44:45;4.80;99.90
29341;DHT22;16337;59.536;13.468;2024-02-23T03:47:11;4.80;99.90
29341;DHT22;16337;59.536;13.468;2024-02-23T03:49:37;4.90;99.90
29341;DHT22;16337;59.536;13.468;2024-02-23T03:52:04;4.80;99.90
29341;DHT22;16337;59.536;13.468;2024-02-23T03:54:30;4.80;99.90
29341;DHT22;16337;59.536;13.468;2024-02-23T03:56:57;4.80;99.90
29341;DHT22;16337;59.536;13.468;2024-02-23T03:59:22;4.80;99.90
29341;DHT22;16337;59.536;13.468;2024-02-23T04:01:49;4.80;99.90
29341;DHT22;16337;59.536;13.468;2024-02-23T04:04:14;4.80;99.90
29341;DHT22;16337;59.536;13.468;2024-02-23T04:06:40;4.80;99.90
29341;DHT22;16337;59.536;13.468;2024-02-23T04:09:06;4.80;99.90
29341;DHT22;16337;59.536;13.468;2024-02-23T04:11:34;4.80;99.90
29341;DHT22;16337;59.536;13.468;2024-02-23T04:13:59;4.80;99.90
29341;DHT22;16337;59.536;13.468;2024-02-23T04:16:26;4.80;99.90
29341;DHT22;16337;59.536;13.468;2024-02-23T04:18:52;4.90;99.90
29341;DHT22;16337;59.536;13.468;2024-02-23T04:21:18;4.80;99.90
29341;DHT22;16337;59.536;13.468;2024-02-23T04:23:44;4.90;99.90
29341;DHT22;16337;59.536;13.468;2024-02-23T04:26:10;4.90;99.90
29341;DHT22;16337;59.536;13.468;2024-02-23T04:28:40;5.00;99.90
29341;DHT22;16337;59.536;13.468;2024-02-23T04:31:06;5.00;99.90
29341;DHT22;16337;59.536;13.468;2024-02-23T04:33:31;4.90;99.90
29341;DHT22;16337;59.536;13.468;2024-02-23T04:35:58;5.00;99.90
29341;DHT22;16337;59.536;13.468;2024-02-23T04:38:24;5.00;99.90
29341;DHT22;16337;59.536;13.468;2024-02-23T04:40:49;5.00;99.90
29341;DHT22;16337;59.536;13.468;2024-02-23T04:43:15;5.10;99.90
29341;DHT22;16337;59.536;13.468;2024-02-23T04:45:41;5.00;99.90
29341;DHT22;16337;59.536;13.468;2024-02-23T04:48:07;5.10;99.90
29341;DHT22;16337;59.536;13.468;2024-02-23T04:50:32;5.10;99.90
29341;DHT22;16337;59.536;13.468;2024-02-23T04:52:58;5.10;99.90
29341;DHT22;16337;59.536;13.468;2024-02-23T04:55:24;5.10;99.90
29341;DHT22;16337;59.536;13.468;2024-02-23T04:57:49;5.10;99.90
29341;DHT22;16337;59.536;13.468;2024-02-23T05:00:15;5.10;99.90
29341;DHT22;16337;59.536;13.468;2024-02-23T05:02:41;5.10;99.90
29341;DHT22;16337;59.536;13.468;2024-02-23T05:05:07;5.10;99.90
29341;DHT22;16337;59.536;13.468;2024-02-23T05:07:33;5.10;99.90
29341;DHT22;16337;59.536;13.468;2024-02-23T05:09:59;5.20;99.90
29341;DHT22;16337;59.536;13.468;2024-02-23T05:12:25;5.20;99.90
29341;DHT22;16337;59.536;13.468;2024-02-23T05:14:51;5.20;99.90
29341;DHT22;16337;59.536;13.468;2024-02-23T05:17:17;5.20;99.90
29341;DHT22;16337;59.536;13.468;2024-02-23T05:19:43;5.30;99.90
29341;DHT22;16337;59.536;13.468;2024-02-23T05:22:08;5.20;99.90
29341;DHT22;16337;59.536;13.468;2024-02-23T05:24:34;5.20;99.90
29341;DHT22;16337;59.536;13.468;2024-02-23T05:27:00;5.30;99.90
29341;DHT22;16337;59.536;13.468;2024-02-23T05:29:28;5.30;99.90
29341;DHT22;16337;59.536;13.468;2024-02-23T05:31:54;5.30;99.90
29341;DHT22;16337;59.536;13.468;2024-02-23T05:34:20;5.30;99.90
29341;DHT22;16337;59.536;13.468;2024-02-23T05:36:46;5.40;99.90
29341;DHT22;16337;59.536;13.468;2024-02-23T05:39:12;5.40;99.90
29341;DHT22;16337;59.536;13.468;2024-02-23T05:41:38;5.40;99.90
29341;DHT22;16337;59.536;13.468;2024-02-23T05:44:04;5.40;99.90
29341;DHT22;16337;59.536;13.468;2024-02-23T05:46:35;5.40;99.90
29341;DHT22;16337;59.536;13.468;2024-02-23T05:49:01;5.50;99.90
29341;DHT22;16337;59.536;13.468;2024-02-23T05:51:28;5.50;99.90
29341;DHT22;16337;59.536;13.468;2024-02-23T05:53:57;5.50;99.90
29341;DHT22;16337;59.536;13.468;2024-02-23T05:56:23;5.60;99.90
29341;DHT22;16337;59.536;13.468;2024-02-23T05:58:50;5.60;99.90
29341;DHT22;16337;59.536;13.468;2024-02-23T06:01:17;5.70;99.90
29341;DHT22;16337;59.536;13.468;2024-02-23T06:03:43;5.60;99.90
29341;DHT22;16337;59.536;13.468;2024-02-23T06:06:10;5.70;99.90
29341;DHT22;16337;59.536;13.468;2024-02-23T06:08:36;5.70;99.90
29341;DHT22;16337;59.536;13.468;2024-02-23T06:11:02;5.60;99.90
29341;DHT22;16337;59.536;13.468;2024-02-23T06:13:29;5.80;99.90
29341;DHT22;16337;59.536;13.468;2024-02-23T06:15:55;5.80;99.90
29341;DHT22;16337;59.536;13.468;2024-02-23T06:18:21;5.70;99.90
29341;DHT22;16337;59.536;13.468;2024-02-23T06:20:47;5.80;99.90
29341;DHT22;16337;59.536;13.468;2024-02-23T06:23:13;5.70;99.90
29341;DHT22;16337;59.536;13.468;2024-02-23T06:25:39;5.60;99.90
29341;DHT22;16337;59.536;13.468;2024-02-23T06:28:05;5.70;99.90
29341;DHT22;16337;59.536;13.468;2024-02-23T06:30:31;5.80;99.90
29341;DHT22;16337;59.536;13.468;2024-02-23T06:32:57;5.80;99.90
29341;DHT22;16337;59.536;13.468;2024-02-23T06:35:23;5.80;99.90
29341;DHT22;16337;59.536;13.468;2024-02-23T06:37:48;5.90;99.90
29341;DHT22;16337;59.536;13.468;2024-02-23T06:40:14;5.90;99.90
29341;DHT22;16337;59.536;13.468;2024-02-23T06:42:40;5.90;99.90
29341;DHT22;16337;59.536;13.468;2024-02-23T06:45:06;5.80;99.90
29341;DHT22;16337;59.536;13.468;2024-02-23T06:47:33;5.80;99.90
29341;DHT22;16337;59.536;13.468;2024-02-23T06:49:59;5.90;99.90
29341;DHT22;16337;59.536;13.468;2024-02-23T06:52:25;6.00;99.90
29341;DHT22;16337;59.536;13.468;2024-02-23T06:54:51;5.90;99.90
29341;DHT22;16337;59.536;13.468;2024-02-23T06:57:17;6.00;99.90
29341;DHT22;16337;59.536;13.468;2024-02-23T06:59:43;6.00;99.90
29341;DHT22;16337;59.536;13.468;2024-02-23T07:02:09;6.00;99.90
29341;DHT22;16337;59.536;13.468;2024-02-23T07:04:35;6.20;99.90
29341;DHT22;16337;59.536;13.468;2024-02-23T07:07:00;6.30;99.90
29341;DHT22;16337;59.536;13.468;2024-02-23T07:09:33;6.30;99.90
29341;DHT22;16337;59.536;13.468;2024-02-23T07:11:58;6.20;99.90
29341;DHT22;16337;59.536;13.468;2024-02-23T07:14:24;6.30;99.90
29341;DHT22;16337;59.536;13.468;2024-02-23T07:16:50;6.30;99.90
29341;DHT22;16337;59.536;13.468;2024-02-23T07:19:16;6.50;99.90
29341;DHT22;16337;59.536;13.468;2024-02-23T07:21:42;6.40;99.90
29341;DHT22;16337;59.536;13.468;2024-02-23T07:24:08;6.50;99.90
29341;DHT22;16337;59.536;13.468;2024-02-23T07:26:36;6.50;99.90
29341;DHT22;16337;59.536;13.468;2024-02-23T07:29:01;6.60;99.90
29341;DHT22;16337;59.536;13.468;2024-02-23T07:31:27;6.70;99.90
29341;DHT22;16337;59.536;13.468;2024-02-23T07:33:53;6.70;99.90
29341;DHT22;16337;59.536;13.468;2024-02-23T07:36:18;6.60;99.90
29341;DHT22;16337;59.536;13.468;2024-02-23T07:38:44;6.60;99.90
29341;DHT22;16337;59.536;13.468;2024-02-23T07:41:14;6.40;99.90
29341;DHT22;16337;59.536;13.468;2024-02-23T07:43:40;6.40;99.90
29341;DHT22;16337;59.536;13.468;2024-02-23T07:46:05;6.30;99.90
29341;DHT22;16337;59.536;13.468;2024-02-23T07:48:34;6.40;99.90
29341;DHT22;16337;59.536;13.468;2024-02-23T07:51:01;6.40;99.90
29341;DHT22;16337;59.536;13.468;2024-02-23T07:53:27;6.30;99.90
29341;DHT22;16337;59.536;13.468;2024-02-23T07:55:53;6.20;99.90
29341;DHT22;16337;59.536;13.468;2024-02-23T07:58:19;6.10;99.90
29341;DHT22;16337;59.536;13.468;2024-02-23T08:00:44;6.00;99.90
29341;DHT22;16337;59.536;13.468;2024-02-23T08:03:10;5.80;99.90
29341;DHT22;16337;59.536;13.468;2024-02-23T08:05:36;5.70;99.90
29341;DHT22;16337;59.536;13.468;2024-02-23T08:08:02;5.60;99.90
29341;DHT22;16337;59.536;13.468;2024-02-23T08:10:28;5.60;99.90
29341;DHT22;16337;59.536;13.468;2024-02-23T08:12:53;5.50;99.90
29341;DHT22;16337;59.536;13.468;2024-02-23T08:15:20;5.50;99.90
29341;DHT22;16337;59.536;13.468;2024-02-23T08:17:46;5.60;99.90
29341;DHT22;16337;59.536;13.468;2024-02-23T08:20:12;5.60;99.90
29341;DHT22;16337;59.536;13.468;2024-02-23T08:22:37;5.50;99.90
29341;DHT22;16337;59.536;13.468;2024-02-23T08:25:03;5.50;99.90
29341;DHT22;16337;59.536;13.468;2024-02-23T08:27:29;5.30;99.90
29341;DHT22;16337;59.536;13.468;2024-02-23T08:29:55;5.20;99.90
29341;DHT22;16337;59.536;13.468;2024-02-23T08:32:21;5.10;99.90
29341;DHT22;16337;59.536;13.468;2024-02-23T08:34:46;5.00;99.90
29341;DHT22;16337;59.536;13.468;2024-02-23T08:37:12;5.00;99.90
29341;DHT22;16337;59.536;13.468;2024-02-23T08:39:38;5.20;99.90
29341;DHT22;16337;59.536;13.468;2024-02-23T08:42:03;5.30;99.90
29341;DHT22;16337;59.536;13.468;2024-02-23T08:44:29;5.30;99.90
29341;DHT22;16337;59.536;13.468;2024-02-23T08:46:55;5.30;99.90
29341;DHT22;16337;59.536;13.468;2024-02-23T08:49:20;5.30;99.90
29341;DHT22;16337;59.536;13.468;2024-02-23T08:51:46;5.30;99.90
29341;DHT22;16337;59.536;13.468;2024-02-23T08:54:12;5.30;99.90
29341;DHT22;16337;59.536;13.468;2024-02-23T08:56:38;5.20;99.90
29341;DHT22;16337;59.536;13.468;2024-02-23T08:59:08;5.20;99.90
29341;DHT22;16337;59.536;13.468;2024-02-23T09:01:37;5.20;99.90
29341;DHT22;16337;59.536;13.468;2024-02-23T09:04:03;5.20;99.90
29341;DHT22;16337;59.536;13.468;2024-02-23T09:06:28;5.20;99.90
29341;DHT22;16337;59.536;13.468;2024-02-23T09:08:54;5.20;99.90
29341;DHT22;16337;59.536;13.468;2024-02-23T09:11:20;5.10;99.90
29341;DHT22;16337;59.536;13.468;2024-02-23T09:13:45;5.10;99.90
29341;DHT22;16337;59.536;13.468;2024-02-23T09:16:11;5.00;99.90
29341;DHT22;16337;59.536;13.468;2024-02-23T09:18:37;5.00;99.90
29341;DHT22;16337;59.536;13.468;2024-02-23T09:21:03;5.10;99.90
29341;DHT22;16337;59.536;13.468;2024-02-23T09:23:28;5.10;99.90
29341;DHT22;16337;59.536;13.468;2024-02-23T09:25:54;5.10;99.90
29341;DHT22;16337;59.536;13.468;2024-02-23T09:28:20;5.10;99.90
29341;DHT22;16337;59.536;13.468;2024-02-23T09:30:45;5.10;99.90
29341;DHT22;16337;59.536;13.468;2024-02-23T09:33:11;5.20;99.90
29341;DHT22;16337;59.536;13.468;2024-02-23T09:35:38;5.10;99.90
29341;DHT22;16337;59.536;13.468;2024-02-23T09:38:04;5.10;99.90
29341;DHT22;16337;59.536;13.468;2024-02-23T09:40:29;5.10;99.90
29341;DHT22;16337;59.536;13.468;2024-02-23T09:42:56;5.10;99.90
29341;DHT22;16337;59.536;13.468;2024-02-23T09:45:26;5.10;99.90
29341;DHT22;16337;59.536;13.468;2024-02-23T09:47:56;5.10;99.90
29341;DHT22;16337;59.536;13.468;2024-02-23T09:50:23;5.00;99.90
29341;DHT22;16337;59.536;13.468;2024-02-23T09:52:50;5.00;99.90
29341;DHT22;16337;59.536;13.468;2024-02-23T09:55:20;5.00;99.90
29341;DHT22;16337;59.536;13.468;2024-02-23T09:57:48;4.90;99.90
29341;DHT22;16337;59.536;13.468;2024-02-23T10:00:16;4.90;99.90
29341;DHT22;16337;59.536;13.468;2024-02-23T10:02:43;4.90;99.90
29341;DHT22;16337;59.536;13.468;2024-02-23T10:05:10;4.80;99.90
29341;DHT22;16337;59.536;13.468;2024-02-23T10:07:36;4.70;99.90
29341;DHT22;16337;59.536;13.468;2024-02-23T10:10:02;4.70;99.90
29341;DHT22;16337;59.536;13.468;2024-02-23T10:12:28;4.60;99.90
29341;DHT22;16337;59.536;13.468;2024-02-23T10:14:54;4.50;99.90
29341;DHT22;16337;59.536;13.468;2024-02-23T10:17:20;4.40;99.90
29341;DHT22;16337;59.536;13.468;2024-02-23T10:19:46;4.40;99.90
29341;DHT22;16337;59.536;13.468;2024-02-23T10:22:11;4.40;99.90
29341;DHT22;16337;59.536;13.468;2024-02-23T10:24:37;4.30;99.90
29341;DHT22;16337;59.536;13.468;2024-02-23T10:27:03;4.40;99.90
29341;DHT22;16337;59.536;13.468;2024-02-23T10:29:29;4.40;99.90
29341;DHT22;16337;59.536;13.468;2024-02-23T10:31:57;4.40;99.90
29341;DHT22;16337;59.536;13.468;2024-02-23T10:34:23;4.40;99.90
29341;DHT22;16337;59.536;13.468;2024-02-23T10:36:49;4.40;99.90
29341;DHT22;16337;59.536;13.468;2024-02-23T10:39:17;4.50;99.90
29341;DHT22;16337;59.536;13.468;2024-02-23T10:41:48;4.50;99.90
29341;DHT22;16337;59.536;13.468;2024-02-23T10:44:18;4.50;99.90
29341;DHT22;16337;59.536;13.468;2024-02-23T10:46:44;4.50;99.90
29341;DHT22;16337;59.536;13.468;2024-02-23T10:49:12;4.60;99.90
29341;DHT22;16337;59.536;13.468;2024-02-23T10:51:40;4.60;99.90
29341;DHT22;16337;59.536;13.468;2024-02-23T10:54:06;4.60;99.90
29341;DHT22;16337;59.536;13.468;2024-02-23T10:56:32;4.60;99.90
29341;DHT22;16337;59.536;13.468;2024-02-23T10:58:58;4.60;99.90
29341;DHT22;16337;59.536;13.468;2024-02-23T11:01:24;4.60;99.90
29341;DHT22;16337;59.536;13.468;2024-02-23T11:03:51;4.70;99.90
29341;DHT22;16337;59.536;13.468;2024-02-23T11:06:19;4.80;99.90
29341;DHT22;16337;59.536;13.468;2024-02-23T11:08:47;4.70;99.90
29341;DHT22;16337;59.536;13.468;2024-02-23T11:11:15;4.70;99.90
29341;DHT22;16337;59.536;13.468;2024-02-23T11:13:43;4.70;99.90
29341;DHT22;16337;59.536;13.468;2024-02-23T11:16:09;4.70;99.90
29341;DHT22;16337;59.536;13.468;2024-02-23T11:18:36;4.70;99.90
29341;DHT22;16337;59.536;13.468;2024-02-23T11:21:04;4.70;99.90
29341;DHT22;16337;59.536;13.468;2024-02-23T11:23:43;4.70;99.90
29341;DHT22;16337;59.536;13.468;2024-02-23T11:26:12;4.90;99.90
29341;DHT22;16337;59.536;13.468;2024-02-23T11:28:47;5.00;99.90
29341;DHT22;16337;59.536;13.468;2024-02-23T11:31:22;5.10;99.90
29341;DHT22;16337;59.536;13.468;2024-02-23T11:33:52;5.10;99.90
29341;DHT22;16337;59.536;13.468;2024-02-23T11:36:29;5.00;99.90
29341;DHT22;16337;59.536;13.468;2024-02-23T11:38:57;5.10;99.90
29341;DHT22;16337;59.536;13.468;2024-02-23T11:41:24;5.00;99.90
29341;DHT22;16337;59.536;13.468;2024-02-23T11:43:54;5.00;99.90
29341;DHT22;16337;59.536;13.468;2024-02-23T11:46:26;5.00;99.90
29341;DHT22;16337;59.536;13.468;2024-02-23T11:48:52;5.00;99.90
29341;DHT22;16337;59.536;13.468;2024-02-23T11:51:21;5.10;99.90
29341;DHT22;16337;59.536;13.468;2024-02-23T11:53:48;5.10;99.90
29341;DHT22;16337;59.536;13.468;2024-02-23T11:56:14;5.20;99.90
29341;DHT22;16337;59.536;13.468;2024-02-23T11:58:41;5.20;99.90
29341;DHT22;16337;59.536;13.468;2024-02-23T12:01:06;5.20;99.90
29341;DHT22;16337;59.536;13.468;2024-02-23T12:03:33;5.40;99.90
29341;DHT22;16337;59.536;13.468;2024-02-23T12:06:00;5.40;99.90
29341;DHT22;16337;59.536;13.468;2024-02-23T12:08:27;5.50;99.90
29341;DHT22;16337;59.536;13.468;2024-02-23T12:10:55;5.30;99.90
29341;DHT22;16337;59.536;13.468;2024-02-23T12:13:21;5.20;99.90
29341;DHT22;16337;59.536;13.468;2024-02-23T12:15:48;5.20;99.90
29341;DHT22;16337;59.536;13.468;2024-02-23T12:18:14;5.30;99.90
29341;DHT22;16337;59.536;13.468;2024-02-23T12:20:40;5.40;99.90
29341;DHT22;16337;59.536;13.468;2024-02-23T12:23:06;5.50;99.90
29341;DHT22;16337;59.536;13.468;2024-02-23T12:25:33;5.50;99.90
29341;DHT22;16337;59.536;13.468;2024-02-23T12:27:59;5.50;99.90
29341;DHT22;16337;59.536;13.468;2024-02-23T12:30:26;5.40;99.90
29341;DHT22;16337;59.536;13.468;2024-02-23T12:33:04;5.40;99.90
29341;DHT22;16337;59.536;13.468;2024-02-23T12:35:30;5.30;99.90
29341;DHT22;16337;59.536;13.468;2024-02-23T12:37:55;5.20;99.90
29341;DHT22;16337;59.536;13.468;2024-02-23T12:40:21;5.10;99.90
29341;DHT22;16337;59.536;13.468;2024-02-23T12:42:46;5.10;99.90
29341;DHT22;16337;59.536;13.468;2024-02-23T12:45:14;5.20;99.90
29341;DHT22;16337;59.536;13.468;2024-02-23T12:47:39;5.20;99.90
29341;DHT22;16337;59.536;13.468;2024-02-23T12:50:06;5.30;99.90
29341;DHT22;16337;59.536;13.468;2024-02-23T12:52:33;5.50;99.90
29341;DHT22;16337;59.536;13.468;2024-02-23T12:54:59;5.50;99.90
29341;DHT22;16337;59.536;13.468;2024-02-23T12:57:25;5.50;99.90
29341;DHT22;16337;59.536;13.468;2024-02-23T12:59:51;5.40;99.90
29341;DHT22;16337;59.536;13.468;2024-02-23T13:02:17;5.40;99.90
29341;DHT22;16337;59.536;13.468;2024-02-23T13:04:42;5.40;99.90
29341;DHT22;16337;59.536;13.468;2024-02-23T13:07:14;5.30;99.90
29341;DHT22;16337;59.536;13.468;2024-02-23T13:09:40;5.40;99.90
29341;DHT22;16337;59.536;13.468;2024-02-23T13:12:05;5.50;99.90
29341;DHT22;16337;59.536;13.468;2024-02-23T13:14:31;5.40;99.90
29341;DHT22;16337;59.536;13.468;2024-02-23T13:16:57;5.30;99.90
29341;DHT22;16337;59.536;13.468;2024-02-23T13:19:22;5.40;99.90
29341;DHT22;16337;59.536;13.468;2024-02-23T13:21:48;5.40;99.90
29341;DHT22;16337;59.536;13.468;2024-02-23T13:24:13;5.50;99.90
29341;DHT22;16337;59.536;13.468;2024-02-23T13:26:39;5.50;99.90
29341;DHT22;16337;59.536;13.468;2024-02-23T13:29:05;5.50;99.90
29341;DHT22;16337;59.536;13.468;2024-02-23T13:31:31;5.60;99.90
29341;DHT22;16337;59.536;13.468;2024-02-23T13:33:57;5.70;99.90
29341;DHT22;16337;59.536;13.468;2024-02-23T13:36:23;5.80;99.90
29341;DHT22;16337;59.536;13.468;2024-02-23T13:38:49;5.80;99.90
29341;DHT22;16337;59.536;13.468;2024-02-23T13:41:16;5.90;99.90
29341;DHT22;16337;59.536;13.468;2024-02-23T13:43:42;5.90;99.90
29341;DHT22;16337;59.536;13.468;2024-02-23T13:46:08;5.90;99.90
29341;DHT22;16337;59.536;13.468;2024-02-23T13:48:33;5.80;99.90
29341;DHT22;16337;59.536;13.468;2024-02-23T13:50:59;5.80;99.90
29341;DHT22;16337;59.536;13.468;2024-02-23T13:53:29;5.80;99.90
29341;DHT22;16337;59.536;13.468;2024-02-23T13:55:55;5.70;99.90
29341;DHT22;16337;59.536;13.468;2024-02-23T13:58:21;5.70;99.90
29341;DHT22;16337;59.536;13.468;2024-02-23T14:00:46;5.70;99.90
29341;DHT22;16337;59.536;13.468;2024-02-23T14:03:16;5.70;99.90
29341;DHT22;16337;59.536;13.468;2024-02-23T14:05:46;5.60;99.90
29341;DHT22;16337;59.536;13.468;2024-02-23T14:08:12;5.70;99.90
29341;DHT22;16337;59.536;13.468;2024-02-23T14:10:38;5.60;99.90
29341;DHT22;16337;59.536;13.468;2024-02-23T14:13:05;5.70;99.90
29341;DHT22;16337;59.536;13.468;2024-02-23T14:15:31;5.70;99.90
29341;DHT22;16337;59.536;13.468;2024-02-23T14:17:57;5.70;99.90
29341;DHT22;16337;59.536;13.468;2024-02-23T14:20:23;5.70;99.90
29341;DHT22;16337;59.536;13.468;2024-02-23T14:22:48;5.60;99.90
29341;DHT22;16337;59.536;13.468;2024-02-23T14:25:15;5.60;99.90
29341;DHT22;16337;59.536;13.468;2024-02-23T14:27:41;5.60;99.90
29341;DHT22;16337;59.536;13.468;2024-02-23T14:30:07;5.60;99.90
29341;DHT22;16337;59.536;13.468;2024-02-23T14:32:33;5.60;99.90
29341;DHT22;16337;59.536;13.468;2024-02-23T14:35:02;5.60;99.90
29341;DHT22;16337;59.536;13.468;2024-02-23T14:37:28;5.60;99.90
29341;DHT22;16337;59.536;13.468;2024-02-23T14:39:54;5.60;99.90
29341;DHT22;16337;59.536;13.468;2024-02-23T14:42:20;5.60;99.90
29341;DHT22;16337;59.536;13.468;2024-02-23T14:44:45;5.60;99.90
29341;DHT22;16337;59.536;13.468;2024-02-23T14:47:11;5.60;99.90
29341;DHT22;16337;59.536;13.468;2024-02-23T14:49:38;5.60;99.90
29341;DHT22;16337;59.536;13.468;2024-02-23T14:52:04;5.60;99.90
29341;DHT22;16337;59.536;13.468;2024-02-23T14:54:33;5.50;99.90
29341;DHT22;16337;59.536;13.468;2024-02-23T14:56:59;5.50;99.90
29341;DHT22;16337;59.536;13.468;2024-02-23T14:59:24;5.40;99.90
29341;DHT22;16337;59.536;13.468;2024-02-23T15:01:50;5.40;99.90
29341;DHT22;16337;59.536;13.468;2024-02-23T15:04:16;5.50;99.90
29341;DHT22;16337;59.536;13.468;2024-02-23T15:06:42;5.40;99.90
29341;DHT22;16337;59.536;13.468;2024-02-23T15:09:07;5.50;99.90
29341;DHT22;16337;59.536;13.468;2024-02-23T15:11:33;5.50;99.90
29341;DHT22;16337;59.536;13.468;2024-02-23T15:13:59;5.50;99.90
29341;DHT22;16337;59.536;13.468;2024-02-23T15:16:27;5.40;99.90
29341;DHT22;16337;59.536;13.468;2024-02-23T15:18:53;5.40;99.90
29341;DHT22;16337;59.536;13.468;2024-02-23T15:21:19;5.40;99.90
29341;DHT22;16337;59.536;13.468;2024-02-23T15:23:45;5.30;99.90
29341;DHT22;16337;59.536;13.468;2024-02-23T15:26:11;5.30;99.90